Create Custom Reports and Graphics: Custom Report

Latest Observations

Map

15 Minute Data

Lake County North

13 Stations

15 Minute Data | America/Los_Angeles
as of 8/19/19 5:19 AM PDT
Station Date Time Temp (°F) Dew Pt (°F) RH (%) Wind Spd (mph) Wind Dir (°) Wind Gust (mph) Latest Rain (In) Daily Rain (In) Daily Min Temp (°F) Daily Max Temp (°F)
Upper Lake (UPL) 8/19/19 0500 54.7   1.5 54.8   1.5 100 0.7 ENE | 58 2.2 0.00 0.00 54.5   1.6 59.5   2.1
Scotts Valley (SVL) 8/19/19 0515 49.9   1.5 49.4   1.0 98 0.0 SSW | 213 0.5 0.00 0.00 49.7   1.4 56.0   1.4
High Valley Ridgeline (Brassfield) 8/19/19 0515 61.2   0.9 58.0   2.1 89 2.9 WNW | 303 4.1 0.00 0.00 60.6   1.2 64.0   5.0
Ridgeline Top (Brassfield) 8/19/19 0515 60.8   1.9 - - - - - - - 59.8   2.3 63.2   6.5
Ridgeline Low (Brassfield) 8/19/19 0515 60.0   1.2 - - - - - - - 59.6   1.2 64.4   3.3
High Valley Winery 8/19/19 0515 51.5   2.9 50.2   2.3 95 0.0 NNW | 338 0.5 0.00 0.00 50.9   2.9 57.8   2.9
Kelseyville (KEL) 8/19/19 0515 53.8   1.1 52.2   1.1 89 1.0 S | 189 2.6 0.00 0.00 53.3   0.6 62.8   2.6
Kelseyville Remote 8/19/19 0515 54.3   1.5 51.1   1.9 89 - - - - - 53.8   1.8 60.3   2.7
Kelseyville South (SML) 8/19/19 0515 53.4   2.3 51.9   1.7 95 0.3 SSE | 155 2.1 0.00 0.00 53.0   2.5 60.5   1.7
Bell Hill West (BHR) 8/19/19 0515 55.4   2.1 52.2   0.4 89 2.6 S | 191 3.3 0.00 0.00 55.2   2.3 62.1   0.5
Wight Way 8/19/19 0515 49.4   1.9 49.2   1.3 99 0.1 SE | 131 1.1 0.00 0.00 49.3   1.7 54.4   2.3
Red Hills (Beckstoffer) 8/19/19 0515 48.0   2.4 47.0   1.9 96 - - - - - 47.8   2.4 53.1   3.7
Red Hills East (2200ft) 8/19/19 0515 54.3   2.1 52.9   1.5 95 0.2 ENE | 75 1.4 0.00 0.00 53.9   1.3 56.5   3.7
Max     61.2 58.0 100 2.9 - 4.1 0.00 0.00 60.6 64.4
Avg     54.4 51.7 94 0.9 - 2.0 0.00 - - -
Min     48.0 47.0 89 0.0 - 0.5 0.00 0.00 47.8 53.1

Lake County South

8 Stations

15 Minute Data | America/Los_Angeles
as of 8/19/19 5:19 AM PDT
Station Date Time Temp (°F) Dew Pt (°F) RH (%) Wind Spd (mph) Wind Dir (°) Wind Gust (mph) Latest Rain (In) Daily Rain (In) Daily Min Temp (°F) Daily Max Temp (°F)
Bella Vista-Middletown West 8/19/19 0515 49.2   0.8 47.6   0.2 94 - - - - - 48.9   1.0 56.4   2.8
Middletown-South 8/19/19 0515 52.1   0.5 50.0   0.0 92 0.3 S | 183 1.1 0.00 0.00 50.6   0.6 58.4   2.2
Lower Bohn 8/19/19 0515 49.7   1.4 48.4   1.5 95 0.5 SW | 220 1.4 0.00 0.00 49.1   1.7 54.8   6.7
Upper Bohn North 8/19/19 0515 52.8   1.5 51.0   1.0 93 1.2 SSE | 156 2.0 0.00 0.00 52.5   0.9 59.0   0.8
Upper Bohn South 8/19/19 0515 54.0   0.3 40.0   2.2 59 0.1 WSW | 251 1.1 0.00 0.00 53.7   0.2 58.0   4.1
Morgan Valley (HSM) 8/19/19 0515 61.4   0.4 52.7   0.7 73 3.6 NNW | 339 4.8 0.00 0.00 58.7   0.5 62.6   4.9
Mine Pit North 8/19/19 0515 57.2   0.8 56.4   0.3 97 3.6 SSW | 210 5.3 - - 56.6   0.9 60.7   1.3
Mine Pit South 8/19/19 0515 56.9   0.3 55.9   0.8 96 0.0 N | 0 0.0 0.00 0.00 56.7   0.3 59.5   1.9
Max     61.4 56.4 97 3.6 - 5.3 0.00 0.00 58.7 62.6
Avg     54.2 50.2 87 1.3 - 2.2 0.00 - - -
Min     49.2 40.0 59 0.0 - 0.0 0.00 0.00 48.9 54.8